Time;durP1;ratioP1;P1;durP2;ratioP2;P2;SDS_P1;SDS_P2;PMS_P1;PMS_P2;Temp;Humidity;BMP_temperature;BMP_pressure;BME280_temperature;BME280_humidity;BME280_pressure;Samples;Min_cycle;Max_cycle;Signal;HPM_P1;HPM_P2
2023/10/20 00:02:05;;;;;;;10.70;9.60;;;;;;;13.96;100.00;98537.63;5089986;28;20284;-36
2023/10/20 00:04:30;;;;;;;13.65;10.02;;;;;;;13.96;100.00;98535.72;5090495;28;20345;-36
2023/10/20 00:06:58;;;;;;;10.43;9.43;;;;;;;13.93;100.00;98533.63;5089818;28;20032;-36
2023/10/20 00:09:24;;;;;;;11.38;10.13;;;;;;;13.95;100.00;98544.16;5079194;28;20027;-36
2023/10/20 00:11:51;;;;;;;11.45;10.35;;;;;;;13.91;100.00;98544.81;5077076;28;20032;-36
2023/10/20 00:14:17;;;;;;;11.48;10.25;;;;;;;13.87;100.00;98534.84;5076221;28;20078;-36
2023/10/20 00:16:42;;;;;;;10.40;9.38;;;;;;;13.90;100.00;98536.94;5076349;28;20038;-36
2023/10/20 00:19:08;;;;;;;12.10;10.35;;;;;;;13.77;100.00;98510.66;5076116;28;20473;-36
2023/10/20 00:21:35;;;;;;;12.37;10.90;;;;;;;13.84;100.00;98525.41;5076443;28;20507;-36
2023/10/20 00:24:00;;;;;;;11.30;9.93;;;;;;;13.83;100.00;98526.50;5076279;28;20267;-36
2023/10/20 00:26:25;;;;;;;11.57;10.30;;;;;;;13.90;100.00;98524.16;5076136;28;20483;-36
2023/10/20 00:28:51;;;;;;;11.57;10.43;;;;;;;13.89;100.00;98519.03;5075885;28;20298;-36
2023/10/20 00:31:16;;;;;;;;;;;;;;;13.93;100.00;98520.03;5076686;28;20040;-36
2023/10/20 00:33:42;;;;;;;12.35;11.10;;;;;;;13.88;100.00;98501.94;5076591;28;20268;-36
2023/10/20 00:36:09;;;;;;;12.02;10.82;;;;;;;13.88;100.00;98504.66;5076645;28;20487;-36
2023/10/20 00:38:35;;;;;;;13.55;11.55;;;;;;;13.89;100.00;98491.88;5075759;28;20020;-36
2023/10/20 00:41:00;;;;;;;12.68;11.35;;;;;;;13.87;100.00;98483.25;5076052;28;20021;-36
2023/10/20 00:43:35;;;;;;;;;;;;;;;13.91;100.00;98478.78;5075847;28;20024;-36
2023/10/20 00:46:04;;;;;;;12.40;11.18;;;;;;;13.74;100.00;98446.06;5075934;28;19955;-36
2023/10/20 00:48:30;;;;;;;14.52;12.68;;;;;;;13.84;100.00;98459.41;5075329;28;20021;-36
2023/10/20 00:50:56;;;;;;;13.85;12.48;;;;;;;13.82;100.00;98450.78;5075553;28;20093;-36
2023/10/20 00:53:23;;;;;;;13.50;12.10;;;;;;;13.82;100.00;98448.84;5075113;28;20456;-36
2023/10/20 00:55:49;;;;;;;13.02;11.75;;;;;;;13.79;100.00;98440.50;5075788;28;20413;-36
2023/10/20 00:58:14;;;;;;;13.07;11.68;;;;;;;13.81;100.00;98436.38;5074594;28;20148;-36
2023/10/20 01:00:39;;;;;;;13.90;12.18;;;;;;;13.77;100.00;98426.47;5075110;28;20047;-36
2023/10/20 01:03:05;;;;;;;12.68;11.00;;;;;;;13.81;100.00;98425.53;5075374;28;20029;-36
2023/10/20 01:05:30;;;;;;;13.70;12.30;;;;;;;13.81;100.00;98425.53;5075850;28;20452;-36
2023/10/20 01:07:56;;;;;;;12.73;11.52;;;;;;;13.78;100.00;98428.84;5075138;28;20036;-36
2023/10/20 01:10:21;;;;;;;15.10;11.82;;;;;;;13.79;100.00;98413.34;5075419;28;20036;-36
2023/10/20 01:12:46;;;;;;;14.43;11.55;;;;;;;13.72;100.00;98397.50;5074823;28;20103;-36
2023/10/20 01:15:16;;;;;;;12.32;11.02;;;;;;;13.78;100.00;98414.47;5075181;28;20067;-36
2023/10/20 01:17:41;;;;;;;13.40;12.00;;;;;;;13.78;100.00;98404.41;5073649;28;20387;-36
2023/10/20 01:20:07;;;;;;;14.57;11.85;;;;;;;13.77;100.00;98389.22;5074336;28;20031;-35
2023/10/20 01:22:33;;;;;;;12.43;11.23;;;;;;;13.77;100.00;98383.78;5074932;28;20060;-35
2023/10/20 01:24:59;;;;;;;12.77;11.40;;;;;;;13.67;100.00;98362.34;5075210;28;20035;-35
2023/10/20 01:27:25;;;;;;;12.65;11.45;;;;;;;13.74;100.00;98370.03;5074897;28;20028;-35
2023/10/20 01:29:50;;;;;;;;;;;;;;;13.79;100.00;98370.69;5075503;28;20150;-35
2023/10/20 01:32:15;;;;;;;13.73;12.18;;;;;;;13.71;100.00;98363.28;5075023;28;20404;-35
2023/10/20 01:34:41;;;;;;;;;;;;;;;13.76;100.00;98359.66;5075456;28;20158;-35
2023/10/20 01:37:10;;;;;;;15.25;12.57;;;;;;;13.72;100.00;98362.19;5075354;28;19990;-35
2023/10/20 01:39:35;;;;;;;14.20;12.70;;;;;;;13.72;100.00;98364.13;5074865;28;20530;-35
2023/10/20 01:42:00;;;;;;;12.50;11.30;;;;;;;13.72;100.00;98372.28;5074822;28;20036;-35
2023/10/20 01:44:26;;;;;;;13.65;12.23;;;;;;;13.70;100.00;98366.34;5074499;28;20278;-35
2023/10/20 01:46:51;;;;;;;;;;;;;;;13.74;100.00;98370.84;5075263;28;20032;-35
2023/10/20 01:49:19;;;;;;;13.13;11.75;;;;;;;13.70;100.00;98375.28;5075170;28;19965;-35
2023/10/20 01:51:44;;;;;;;12.63;11.43;;;;;;;13.70;100.00;98360.91;5075181;28;20032;-35
2023/10/20 01:54:10;;;;;;;13.00;11.65;;;;;;;13.71;100.00;98362.50;5074263;28;20052;-35
2023/10/20 01:56:35;;;;;;;13.10;11.80;;;;;;;13.69;100.00;98359.31;5074180;28;20060;-35
2023/10/20 01:59:01;;;;;;;14.45;11.77;;;;;;;13.67;100.00;98350.69;5075075;28;20342;-36
2023/10/20 02:01:28;;;;;;;13.00;11.77;;;;;;;13.64;100.00;98347.47;5074443;28;20025;-35
2023/10/20 02:03:53;;;;;;;13.57;12.18;;;;;;;13.57;100.00;98330.81;5074909;28;20028;-35
2023/10/20 02:06:19;;;;;;;13.30;12.05;;;;;;;13.52;100.00;98320.09;5074391;28;20025;-35
2023/10/20 02:08:44;;;;;;;13.52;12.20;;;;;;;13.58;100.00;98324.28;5073801;28;20032;-35
2023/10/20 02:11:09;;;;;;;13.10;11.70;;;;;;;13.59;100.00;98312.28;5074017;28;20024;-35
2023/10/20 02:13:37;;;;;;;13.18;11.80;;;;;;;13.60;100.00;98307.66;5073675;28;20028;-35
2023/10/20 02:16:02;;;;;;;13.48;11.75;;;;;;;13.59;100.00;98300.63;5074207;28;20381;-35
2023/10/20 02:18:27;;;;;;;13.40;12.05;;;;;;;13.53;100.00;98299.97;5073832;28;20040;-35
2023/10/20 02:20:57;;;;;;;13.27;11.97;;;;;;;13.58;100.00;98307.19;5073909;28;20024;-35
2023/10/20 02:23:23;;;;;;;14.43;11.73;;;;;;;13.55;100.00;98302.38;5073772;28;20302;-35
2023/10/20 02:26:02;;;;;;;14.18;12.48;;;;;;;13.53;100.00;98299.97;5073598;28;20135;-35
2023/10/20 02:28:28;;;;;;;14.07;12.60;;;;;;;13.53;100.00;98299.97;5073403;28;20047;-35
2023/10/20 02:30:57;;;;;;;14.73;12.10;;;;;;;13.44;100.00;98282.84;5073824;28;20029;-35
2023/10/20 02:33:22;;;;;;;16.30;13.10;;;;;;;13.35;100.00;98263.78;5073689;28;20025;-35
2023/10/20 02:35:48;;;;;;;14.27;12.00;;;;;;;13.51;100.00;98277.75;5073761;28;20042;-35
2023/10/20 02:38:14;;;;;;;12.82;11.52;;;;;;;13.51;100.00;98260.66;5073296;28;20354;-35
2023/10/20 02:40:39;;;;;;;;;;;;;;;13.54;100.00;98260.84;5074599;28;20040;-35
2023/10/20 02:43:04;;;;;;;12.43;11.13;;;;;;;13.46;100.00;98256.16;5073350;28;19909;-35
2023/10/20 02:45:31;;;;;;;14.65;12.27;;;;;;;13.49;100.00;98252.03;5074110;28;20028;-35
2023/10/20 02:47:57;;;;;;;13.48;11.68;;;;;;;13.47;100.00;98244.22;5073461;28;20032;-35
2023/10/20 02:50:22;;;;;;;16.73;12.75;;;;;;;13.45;100.00;98232.84;5073482;28;20032;-35
2023/10/20 02:52:48;;;;;;;14.60;11.75;;;;;;;13.48;100.00;98229.53;5074223;28;20039;-35
2023/10/20 02:55:13;;;;;;;;;;;;;;;13.51;100.00;98231.59;5074457;28;20032;-36
2023/10/20 02:57:39;;;;;;;14.35;12.57;;;;;;;13.37;100.00;98201.03;5073570;28;20007;-35
2023/10/20 03:00:05;;;;;;;;;;;;;;;13.48;100.00;98207.81;5073866;28;20107;-35
2023/10/20 03:02:30;;;;;;;14.13;12.27;;;;;;;13.47;100.00;98210.81;5073413;28;19913;-35
2023/10/20 03:04:56;;;;;;;14.60;13.10;;;;;;;13.48;100.00;98207.00;5073742;28;20453;-36
2023/10/20 03:07:25;;;;;;;;;;;;;;;13.49;100.00;98203.16;5073728;28;20033;-35
2023/10/20 03:09:53;;;;;;;16.05;13.40;;;;;;;13.39;100.00;98186.06;5073339;28;19912;-35
2023/10/20 03:12:19;;;;;;;15.20;13.60;;;;;;;13.43;100.00;98188.16;5073337;28;20028;-35
2023/10/20 03:14:45;;;;;;;18.60;12.85;;;;;;;13.44;100.00;98178.88;5073243;28;20024;-35
2023/10/20 03:17:11;;;;;;;14.02;12.70;;;;;;;13.31;100.00;98153.44;5073568;28;20490;-36
2023/10/20 03:19:38;;;;;;;18.63;14.38;;;;;;;13.39;100.00;98175.19;5073239;28;20056;-35
2023/10/20 03:22:03;;;;;;;17.90;14.10;;;;;;;13.41;100.00;98180.28;5073488;28;20483;-35
2023/10/20 03:24:29;;;;;;;14.77;13.27;;;;;;;13.40;100.00;98189.56;5073187;28;20100;-36
2023/10/20 03:26:54;;;;;;;15.45;13.77;;;;;;;13.43;100.00;98180.00;5073746;28;20258;-35
2023/10/20 03:29:20;;;;;;;19.80;14.40;;;;;;;13.42;100.00;98175.66;5073177;28;20036;-35
2023/10/20 03:31:45;;;;;;;;;;;;;;;13.45;100.00;98180.47;5073909;28;20033;-35
2023/10/20 03:34:10;;;;;;;15.33;13.73;;;;;;;13.40;100.00;98174.06;5072851;28;19908;-35
2023/10/20 03:36:36;;;;;;;15.27;13.73;;;;;;;13.27;100.00;98147.84;5073120;28;20270;-35
2023/10/20 03:39:01;;;;;;;;;;;;;;;13.43;100.00;98153.66;5073524;28;20109;-35
2023/10/20 03:41:28;;;;;;;14.23;12.80;;;;;;;13.39;100.00;98139.09;5073070;28;19908;-35
2023/10/20 03:43:54;;;;;;;13.98;12.68;;;;;;;13.40;100.00;98140.69;5074327;28;20032;-35
2023/10/20 03:46:19;;;;;;;14.55;13.07;;;;;;;13.37;100.00;98133.19;5076560;28;20020;-35
2023/10/20 03:48:45;;;;;;;14.57;12.33;;;;;;;13.42;100.00;98134.94;5076771;28;20056;-35
2023/10/20 03:51:11;;;;;;;;;;;;;;;13.45;100.00;98151.41;5077367;28;20742;-35
2023/10/20 03:53:46;;;;;;;15.20;13.63;;;;;;;13.39;100.00;98158.91;5077165;28;19908;-35
2023/10/20 03:56:11;;;;;;;16.05;14.18;;;;;;;13.40;100.00;98156.97;5076763;28;20028;-35
2023/10/20 03:58:37;;;;;;;14.77;13.27;;;;;;;13.26;100.00;98121.03;5077092;28;20045;-35
2023/10/20 04:01:03;;;;;;;15.60;13.98;;;;;;;13.33;100.00;98105.09;5076501;28;20040;-35
2023/10/20 04:03:32;;;;;;;16.35;14.77;;;;;;;13.35;100.00;98121.84;5076638;28;20025;-35
2023/10/20 04:05:58;;;;;;;15.50;14.05;;;;;;;13.36;100.00;98126.16;5077032;28;20091;-35
2023/10/20 04:08:24;;;;;;;15.73;14.02;;;;;;;13.30;100.00;98111.94;5075974;28;20036;-35
2023/10/20 04:10:59;;;;;;;15.65;14.10;;;;;;;13.33;100.00;98113.22;5076394;28;20067;-35
2023/10/20 04:13:25;;;;;;;15.98;14.38;;;;;;;13.32;100.00;98117.03;5076244;28;20436;-35
2023/10/20 04:15:52;;;;;;;15.60;13.85;;;;;;;13.27;100.00;98093.56;5076787;28;20099;-35
2023/10/20 04:18:19;;;;;;;18.10;15.40;;;;;;;13.36;100.00;98093.59;5076621;28;20179;-35
2023/10/20 04:20:48;;;;;;;17.05;13.95;;;;;;;13.34;100.00;98085.75;5075870;28;20112;-35
2023/10/20 04:23:13;;;;;;;16.00;14.38;;;;;;;13.33;100.00;98088.81;5075732;28;20032;-35
2023/10/20 04:25:52;;;;;;;16.60;14.95;;;;;;;13.30;100.00;98071.22;5076307;28;20069;-35
2023/10/20 04:28:20;;;;;;;16.17;14.57;;;;;;;13.28;100.00;98061.81;5076282;28;20063;-35
2023/10/20 04:42:22;;;;;;;17.17;15.57;;;;;;;13.25;100.00;98030.66;5076066;28;20108;-35
2023/10/20 04:57:51;;;;;;;18.43;16.53;;;;;;;13.38;100.00;97999.09;5075249;28;20056;-36
2023/10/20 05:05:39;;;;;;;18.40;16.60;;;;;;;13.29;100.00;97990.13;5075361;28;20040;-35
2023/10/20 05:08:17;;;;;;;19.77;17.67;;;;;;;13.36;100.00;97987.72;5075502;28;20056;-35
2023/10/20 05:10:43;;;;;;;19.05;17.15;;;;;;;13.35;100.00;97972.56;5075220;28;20032;-35
2023/10/20 05:13:09;;;;;;;19.40;17.60;;;;;;;13.35;100.00;97964.44;5075110;28;20115;-36
2023/10/20 05:15:38;;;;;;;19.80;18.00;;;;;;;13.37;100.00;97975.75;5075673;28;20032;-36
2023/10/20 05:18:14;;;;;;;19.88;17.95;;;;;;;13.37;100.00;97967.63;5074885;28;20112;-36
2023/10/20 05:20:41;;;;;;;18.88;17.05;;;;;;;13.38;100.00;97975.47;5075271;28;20063;-36
2023/10/20 05:23:07;;;;;;;20.73;18.60;;;;;;;13.33;100.00;97964.75;5074874;28;20021;-36
2023/10/20 05:25:33;;;;;;;19.67;17.77;;;;;;;13.36;100.00;97958.69;5074884;28;20467;-36
2023/10/20 05:28:00;;;;;;;20.23;18.33;;;;;;;13.37;100.00;97954.88;5075103;28;20054;-36
2023/10/20 05:30:26;;;;;;;20.95;19.05;;;;;;;13.35;100.00;97948.94;5075071;28;20024;-36
2023/10/20 05:32:51;;;;;;;22.33;20.08;;;;;;;13.32;100.00;97944.16;5074397;28;20362;-36
2023/10/20 05:35:17;;;;;;;21.02;19.02;;;;;;;13.32;100.00;97938.75;5075059;28;20476;-36
2023/10/20 05:37:42;;;;;;;22.35;20.10;;;;;;;13.37;100.00;97956.75;5074905;28;20031;-36
2023/10/20 05:40:08;;;;;;;20.75;18.85;;;;;;;13.39;100.00;97965.41;5074648;28;20033;-36
2023/10/20 05:42:33;;;;;;;19.17;17.35;;;;;;;13.36;100.00;97953.25;5074828;28;20025;-36
2023/10/20 05:45:02;;;;;;;20.05;18.13;;;;;;;13.39;100.00;97966.19;5075410;28;20028;-36
2023/10/20 05:47:31;;;;;;;20.40;18.50;;;;;;;13.39;100.00;97977.03;5074397;28;20162;-36
2023/10/20 05:50:02;;;;;;;20.73;18.90;;;;;;;13.40;100.00;97961.56;5074375;28;20485;-36
2023/10/20 05:52:28;;;;;;;21.08;19.08;;;;;;;13.40;100.00;97946.06;5074644;28;20181;-36
2023/10/20 05:54:54;;;;;;;21.88;19.63;;;;;;;13.37;100.00;97957.59;5074918;28;20385;-36
2023/10/20 05:57:19;;;;;;;;;;;;;;;13.44;100.00;97951.66;5074695;28;20048;-36
2023/10/20 05:59:46;;;;;;;20.00;18.10;;;;;;;13.43;100.00;97954.72;5074534;28;19919;-36
2023/10/20 06:02:11;;;;;;;20.45;18.50;;;;;;;13.42;100.00;97951.19;5074494;28;20029;-36
2023/10/20 06:04:37;;;;;;;20.15;18.45;;;;;;;13.42;100.00;97939.50;5074663;28;20377;-36
2023/10/20 06:07:04;;;;;;;20.85;19.02;;;;;;;13.42;100.00;97942.22;5073583;28;20032;-36
2023/10/20 06:09:29;;;;;;;21.73;19.65;;;;;;;13.37;100.00;97935.03;5074001;28;20028;-36
2023/10/20 06:11:54;;;;;;;20.92;18.92;;;;;;;13.36;100.00;97917.97;5074332;28;20468;-36
2023/10/20 06:14:21;;;;;;;20.27;18.38;;;;;;;13.39;100.00;97921.97;5073678;28;20392;-36
2023/10/20 06:16:46;;;;;;;20.85;19.05;;;;;;;13.40;100.00;97920.84;5074499;28;20035;-36
2023/10/20 06:19:11;;;;;;;21.02;19.08;;;;;;;13.43;100.00;97922.94;5074130;28;20451;-36
2023/10/20 06:21:38;;;;;;;;;;;;;;;13.47;100.00;97951.03;5074647;28;20103;-36
2023/10/20 06:24:04;;;;;;;20.08;18.17;;;;;;;13.44;100.00;97943.53;5073508;28;20368;-36
2023/10/20 06:26:29;;;;;;;20.98;19.05;;;;;;;13.36;100.00;97933.44;5073855;28;20070;-36
2023/10/20 06:28:55;;;;;;;21.38;19.38;;;;;;;13.44;100.00;97940.00;5074230;28;20024;-36
2023/10/20 06:31:41;;;;;;;20.70;18.85;;;;;;;13.43;100.00;97914.78;5073657;28;20075;-36
2023/10/20 06:34:17;;;;;;;20.63;18.63;;;;;;;13.34;100.00;97905.84;5073698;28;20028;-36
2023/10/20 06:36:48;;;;;;;20.83;18.95;;;;;;;13.42;100.00;97925.94;5073381;28;20419;-36
2023/10/20 06:39:15;;;;;;;21.10;19.20;;;;;;;13.35;100.00;97915.59;5074242;28;20112;-36
2023/10/20 06:41:41;;;;;;;21.48;19.52;;;;;;;13.38;100.00;97923.09;5073885;28;20024;-36
2023/10/20 06:44:06;;;;;;;21.00;19.00;;;;;;;13.40;100.00;97934.41;5073570;28;20032;-36
2023/10/20 06:46:32;;;;;;;21.25;19.35;;;;;;;13.37;100.00;97930.44;5073311;28;20024;-36
2023/10/20 06:48:57;;;;;;;20.55;18.65;;;;;;;13.29;100.00;97911.44;5073603;28;20020;-36
2023/10/20 06:51:25;;;;;;;19.80;18.00;;;;;;;13.36;100.00;97919.88;5073577;28;20028;-36
2023/10/20 06:53:50;;;;;;;18.90;17.20;;;;;;;13.36;100.00;97909.03;5073443;28;20380;-36
2023/10/20 06:56:15;;;;;;;19.52;17.73;;;;;;;13.35;100.00;97910.16;5074038;28;20034;-36
2023/10/20 06:58:41;;;;;;;18.98;17.17;;;;;;;13.33;100.00;97913.19;5073428;28;20045;-36
2023/10/20 07:01:06;;;;;;;18.88;17.27;;;;;;;13.32;100.00;97911.59;5073731;28;20040;-36
2023/10/20 07:03:32;;;;;;;19.40;17.65;;;;;;;13.32;100.00;97910.78;5073674;28;20020;-36
2023/10/20 07:05:58;;;;;;;;;;;;;;;13.33;100.00;97910.47;5073807;28;20484;-36
2023/10/20 07:08:24;;;;;;;19.15;17.38;;;;;;;13.32;100.00;97902.63;5073714;28;20011;-36
2023/10/20 07:10:50;;;;;;;18.88;17.17;;;;;;;13.24;100.00;97903.47;5073621;28;20025;-36
2023/10/20 07:13:17;;;;;;;;;;;;;;;13.27;100.00;97909.03;5073446;28;20040;-36
2023/10/20 07:15:43;;;;;;;17.48;15.88;;;;;;;13.26;100.00;97906.63;5073658;28;20003;-36
2023/10/20 07:18:12;;;;;;;17.33;15.63;;;;;;;13.20;100.00;97905.19;5073882;28;20435;-36
2023/10/20 07:20:38;;;;;;;16.10;14.52;;;;;;;13.19;100.00;97892.75;5077607;28;20453;-36
2023/10/20 07:23:05;;;;;;;16.50;14.80;;;;;;;13.23;100.00;97907.31;5077464;28;20127;-36
2023/10/20 07:25:31;;;;;;;15.30;13.80;;;;;;;13.22;100.00;97900.25;5077204;28;20040;-36
2023/10/20 07:27:57;;;;;;;14.43;12.95;;;;;;;13.17;100.00;97897.66;5078009;28;20078;-36
2023/10/20 07:30:23;;;;;;;;;;;;;;;13.20;100.00;97902.47;5078428;28;20116;-36
2023/10/20 07:32:51;;;;;;;14.77;13.38;;;;;;;13.11;100.00;97908.69;5077327;28;19912;-36
2023/10/20 07:35:17;;;;;;;14.50;13.00;;;;;;;13.08;100.00;97906.63;5077593;28;20107;-36
2023/10/20 07:37:43;;;;;;;12.73;11.43;;;;;;;13.10;100.00;97903.59;5077710;28;20028;-36
2023/10/20 07:40:09;;;;;;;14.60;12.23;;;;;;;13.06;100.00;97898.00;5077552;28;20372;-36
2023/10/20 07:42:35;;;;;;;12.65;11.38;;;;;;;13.02;100.00;97902.44;5077194;28;20081;-36
2023/10/20 07:45:01;;;;;;;11.57;10.50;;;;;;;13.01;100.00;97906.28;5077375;28;20469;-36
2023/10/20 07:47:27;;;;;;;12.70;11.40;;;;;;;12.91;100.00;97890.31;5075752;28;20092;-36
2023/10/20 07:49:52;;;;;;;21.80;12.73;;;;;;;12.97;100.00;97893.69;5076758;28;20113;-36
2023/10/20 07:52:18;;;;;;;12.10;10.90;;;;;;;12.94;100.00;97903.25;5077227;28;20112;-36
2023/10/20 07:54:44;;;;;;;12.05;10.85;;;;;;;12.79;100.00;97879.31;5076928;28;20109;-37
2023/10/20 07:57:10;;;;;;;11.27;10.18;;;;;;;12.81;100.00;97880.59;5076423;28;20049;-36
2023/10/20 07:59:35;;;;;;;10.85;9.75;;;;;;;12.85;100.00;97888.88;5076823;28;20480;-36
2023/10/20 08:02:01;;;;;;;10.25;8.88;;;;;;;12.88;100.00;97882.81;5076793;28;20020;-36
2023/10/20 08:04:26;;;;;;;9.50;8.50;;;;;;;12.85;100.00;97870.69;5076486;28;20031;-36
2023/10/20 08:06:54;;;;;;;;;;;;;;;12.88;100.00;97864.66;5077477;28;20123;-36
2023/10/20 08:09:20;;;;;;;10.98;9.35;;;;;;;12.83;100.00;97859.38;5076284;28;19966;-36
2023/10/20 08:11:45;;;;;;;10.68;9.57;;;;;;;12.78;100.00;97866.84;5076354;28;20024;-36
2023/10/20 08:14:11;;;;;;;11.02;9.93;;;;;;;12.73;100.00;97861.59;5076828;28;20111;-36
2023/10/20 08:16:37;;;;;;;13.93;9.57;;;;;;;12.75;100.00;97862.88;5076447;28;20028;-36
2023/10/20 08:19:02;;;;;;;13.13;8.43;;;;;;;12.66;100.00;97855.84;5075877;28;20028;-36
2023/10/20 08:21:29;;;;;;;9.15;8.23;;;;;;;12.69;100.00;97871.47;5076958;28;20037;-36
2023/10/20 08:23:58;;;;;;;8.60;7.80;;;;;;;12.69;100.00;97868.75;5076014;28;20032;-36
2023/10/20 08:26:23;;;;;;;8.95;7.85;;;;;;;12.67;100.00;97871.00;5076106;28;20032;-36
2023/10/20 08:28:49;;;;;;;8.05;7.25;;;;;;;12.59;100.00;97867.16;5075639;28;20093;-36
2023/10/20 08:31:17;;;;;;;7.22;6.53;;;;;;;12.58;100.00;97863.63;5076472;28;20040;-36
2023/10/20 08:33:44;;;;;;;7.80;6.53;;;;;;;12.61;100.00;97860.31;5076207;28;20028;-36
2023/10/20 08:36:11;;;;;;;6.22;5.63;;;;;;;12.46;100.00;97862.66;5076248;28;20135;-36
2023/10/20 08:38:37;;;;;;;6.55;5.90;;;;;;;12.43;100.00;97866.78;5076259;28;20035;-36
2023/10/20 08:41:10;;;;;;;6.80;5.75;;;;;;;12.48;100.00;97871.28;5076624;28;20036;-36
2023/10/20 08:43:39;;;;;;;5.78;5.18;;;;;;;12.50;100.00;97880.69;5076580;28;20491;-36
2023/10/20 08:46:05;;;;;;;6.70;5.35;;;;;;;12.50;100.00;97867.16;5075442;28;20029;-36
2023/10/20 08:48:31;;;;;;;;;;;;;;;12.51;100.00;97870.66;5075887;28;20036;-36
2023/10/20 08:50:59;;;;;;;5.20;4.30;;;;;;;12.41;100.00;97860.13;5076165;28;19908;-35
2023/10/20 08:53:26;;;;;;;4.85;4.30;;;;;;;12.37;100.00;97862.66;5075787;28;20441;-36
2023/10/20 08:55:51;;;;;;;6.45;3.80;;;;;;;12.40;100.00;97864.75;5075619;28;20086;-36
2023/10/20 08:58:17;;;;;;;5.00;3.73;;;;;;;12.43;100.00;97868.72;5075280;28;20245;-36
2023/10/20 09:00:43;;;;;;;;;;;;;;;12.43;100.00;97866.78;5076481;28;20448;-36
2023/10/20 09:03:09;;;;;;;5.38;3.20;;;;;;;12.31;100.00;97858.50;5075380;28;20018;-36
2023/10/20 09:05:35;;;;;;;4.15;2.83;;;;;;;12.37;100.00;97870.78;5075916;28;20048;-36
2023/10/20 09:08:01;;;;;;;2.63;2.40;;;;;;;12.32;100.00;97868.22;5075312;28;20453;-36
2023/10/20 09:10:26;;;;;;;3.90;2.70;;;;;;;12.23;100.00;97861.97;5074979;28;20270;-36
2023/10/20 09:12:52;;;;;;;3.20;2.50;;;;;;;12.23;100.00;97868.19;5074920;28;20268;-36
2023/10/20 09:15:17;;;;;;;;;;;;;;;12.23;100.00;97870.09;5074736;28;20029;-36
2023/10/20 09:17:44;;;;;;;3.13;2.30;;;;;;;12.21;100.00;97866.91;5075527;28;19919;-36
2023/10/20 09:20:14;;;;;;;2.20;2.00;;;;;;;12.14;100.00;97870.06;5074760;28;20465;-36
2023/10/20 09:22:40;;;;;;;3.72;1.98;;;;;;;12.07;100.00;97875.94;5074984;28;20025;-36
2023/10/20 09:25:11;;;;;;;2.72;1.98;;;;;;;12.14;100.00;97861.94;5075839;28;20055;-36
2023/10/20 09:27:39;;;;;;;2.97;2.10;;;;;;;12.09;100.00;97856.66;5075214;28;20103;-35
2023/10/20 09:30:10;;;;;;;3.22;1.92;;;;;;;12.11;100.00;97839.00;5075173;28;20060;-35
2023/10/20 09:32:36;;;;;;;2.08;1.80;;;;;;;12.03;100.00;97826.22;5075551;28;20062;-35
2023/10/20 09:35:03;;;;;;;2.25;1.55;;;;;;;12.04;100.00;97856.81;5074785;28;20574;-35
2023/10/20 09:37:30;;;;;;;2.97;2.25;;;;;;;12.02;100.00;97845.50;5074813;28;20074;-36
2023/10/20 09:40:07;;;;;;;2.88;1.77;;;;;;;12.00;100.00;97853.13;5074981;28;20082;-36
2023/10/20 09:42:42;;;;;;;1.85;1.65;;;;;;;11.99;100.00;97855.03;5073869;28;20468;-36
2023/10/20 09:45:14;;;;;;;2.20;1.80;;;;;;;11.97;100.00;97859.97;5075127;28;20119;-36
2023/10/20 09:47:43;;;;;;;1.50;1.40;;;;;;;11.88;100.00;97842.88;5073828;28;20029;-36
2023/10/20 09:50:11;;;;;;;1.60;1.50;;;;;;;11.99;100.00;97849.59;5075014;28;20124;-36
2023/10/20 09:52:38;;;;;;;2.05;1.50;;;;;;;12.02;100.00;97857.13;5073210;28;20032;-36
2023/10/20 09:55:05;;;;;;;1.75;1.40;;;;;;;11.99;100.00;97852.31;5075472;28;20338;-36
2023/10/20 09:57:30;;;;;;;1.85;1.40;;;;;;;12.02;100.00;97853.63;5074595;28;20126;-36
2023/10/20 09:59:57;;;;;;;1.40;1.30;;;;;;;11.95;100.00;97826.97;5074635;28;20457;-36
2023/10/20 10:02:29;;;;;;;1.70;1.20;;;;;;;11.94;100.00;97841.63;5074799;28;20024;-38
2023/10/20 10:04:59;;;;;;;1.40;1.30;;;;;;;11.85;100.00;97844.28;5075013;28;20024;-36
2023/10/20 10:07:34;;;;;;;1.67;1.20;;;;;;;11.87;100.00;97849.41;5074667;28;20024;-35
2023/10/20 10:09:59;;;;;;;1.92;1.30;;;;;;;11.86;100.00;97839.69;5074118;28;20037;-36
2023/10/20 10:12:30;;;;;;;2.20;1.40;;;;;;;11.91;100.00;97847.69;5073827;28;20104;-36
2023/10/20 10:15:05;;;;;;;1.50;1.40;;;;;;;11.92;100.00;97843.06;5073825;28;20478;-36
2023/10/20 10:17:31;;;;;;;1.43;1.33;;;;;;;11.86;100.00;97828.88;5074758;28;20114;-36
2023/10/20 10:19:57;;;;;;;1.67;1.40;;;;;;;11.82;100.00;97815.16;5074223;28;20380;-36
2023/10/20 10:22:27;;;;;;;1.83;1.40;;;;;;;11.99;100.00;97835.28;5073937;28;20024;-35
2023/10/20 10:24:54;;;;;;;2.20;1.60;;;;;;;11.94;100.00;97827.28;5074430;28;20055;-35
2023/10/20 10:27:22;;;;;;;1.95;1.50;;;;;;;11.99;100.00;97832.56;5073772;28;20484;-36
2023/10/20 10:29:59;;;;;;;1.65;1.35;;;;;;;12.03;100.00;97826.22;5074691;28;20025;-36
2023/10/20 10:32:27;;;;;;;1.20;1.10;;;;;;;12.06;100.00;97822.09;5074066;28;20032;-36
2023/10/20 10:34:53;;;;;;;1.60;1.40;;;;;;;12.04;100.00;97822.38;5073783;28;20472;-36
2023/10/20 10:37:29;;;;;;;2.15;1.20;;;;;;;12.04;100.00;97821.59;5073941;28;20050;-36
2023/10/20 10:40:18;;;;;;;1.77;1.53;;;;;;;12.07;100.00;97812.84;5073709;28;20115;-36
2023/10/20 10:42:45;;;;;;;1.60;1.50;;;;;;;11.92;100.00;97813.28;5074226;28;20320;-36
2023/10/20 10:45:23;;;;;;;1.48;1.38;;;;;;;11.99;100.00;97811.69;5074446;28;20043;-36
2023/10/20 10:48:07;;;;;;;1.85;1.30;;;;;;;12.01;100.00;97803.28;5073930;28;20116;-36
2023/10/20 10:50:35;;;;;;;2.50;1.35;;;;;;;12.06;100.00;97800.44;5073575;28;20039;-36
2023/10/20 10:53:02;;;;;;;1.20;1.08;;;;;;;12.00;100.00;97786.22;5074164;28;20020;-36
2023/10/20 10:55:27;;;;;;;1.38;1.20;;;;;;;12.02;100.00;97786.72;5073296;28;20025;-36
2023/10/20 10:57:53;;;;;;;2.38;1.20;;;;;;;12.00;100.00;97780.78;5073382;28;20097;-36
2023/10/20 11:00:21;;;;;;;1.35;1.25;;;;;;;11.94;100.00;97776.63;5073796;28;20090;-36
2023/10/20 11:02:48;;;;;;;2.85;1.55;;;;;;;12.02;100.00;97778.59;5073714;28;20033;-36
2023/10/20 11:05:15;;;;;;;1.42;1.20;;;;;;;12.05;100.00;97764.41;5074076;28;20078;-35
2023/10/20 11:07:41;;;;;;;1.40;1.20;;;;;;;12.11;100.00;97765.88;5073374;28;20029;-36
2023/10/20 11:10:08;;;;;;;1.90;1.60;;;;;;;12.00;100.00;97736.66;5073732;28;20441;-36
2023/10/20 11:12:34;;;;;;;1.15;1.05;;;;;;;12.12;100.00;97745.00;5073923;28;20029;-36
2023/10/20 11:14:59;;;;;;;2.40;1.30;;;;;;;12.04;100.00;97751.97;5072976;28;20449;-36
2023/10/20 11:17:25;;;;;;;1.73;1.30;;;;;;;12.11;100.00;97749.59;5073557;28;20020;-36
2023/10/20 11:19:50;;;;;;;1.90;1.48;;;;;;;12.15;100.00;97743.53;5073830;28;20028;-36
2023/10/20 11:22:16;;;;;;;2.72;1.60;;;;;;;12.15;100.00;97748.97;5073605;28;20484;-36
2023/10/20 11:24:42;;;;;;;1.98;1.80;;;;;;;12.23;100.00;97743.56;5073774;28;20029;-36
2023/10/20 11:27:08;;;;;;;1.45;1.35;;;;;;;12.24;100.00;97739.72;5072932;28;20033;-36
2023/10/20 11:29:35;;;;;;;1.60;1.50;;;;;;;12.17;100.00;97720.47;5073549;28;20028;-36
2023/10/20 11:32:08;;;;;;;1.50;1.40;;;;;;;12.21;100.00;97737.69;5073183;28;20032;-36
2023/10/20 11:34:34;;;;;;;1.70;1.60;;;;;;;12.26;100.00;97734.00;5074001;28;20025;-35
2023/10/20 11:37:00;;;;;;;;;;;;;;;12.28;100.00;97735.28;5073193;28;20028;-36
2023/10/20 11:39:27;;;;;;;2.13;1.75;;;;;;;12.19;100.00;97730.97;5073033;28;19945;-36
2023/10/20 11:41:53;;;;;;;1.70;1.60;;;;;;;12.26;100.00;97725.88;5073897;28;20112;-36
2023/10/20 11:44:19;;;;;;;2.42;1.92;;;;;;;12.25;100.00;97722.38;5073313;28;20482;-35
2023/10/20 11:46:45;;;;;;;2.13;1.92;;;;;;;12.27;100.00;97725.56;5073343;28;20063;-36
2023/10/20 11:49:13;;;;;;;2.28;2.08;;;;;;;12.18;100.00;97699.59;5072658;28;20020;-36
2023/10/20 11:51:39;;;;;;;3.17;1.90;;;;;;;12.35;100.00;97705.81;5073569;28;20035;-36